createdAt,value
2023-01-17T00:02:16.796Z,3.60
2023-01-17T00:05:02.317Z,3.60
2023-01-17T00:07:47.763Z,3.50
2023-01-17T00:10:20.621Z,3.60
2023-01-17T00:12:50.067Z,3.60
2023-01-17T00:15:19.648Z,3.60
2023-01-17T00:17:47.194Z,3.70
2023-01-17T00:20:39.263Z,3.70
2023-01-17T00:23:33.835Z,3.70
2023-01-17T00:26:03.383Z,3.60
2023-01-17T00:28:31.106Z,3.70
2023-01-17T00:30:58.153Z,3.60
2023-01-17T00:33:25.493Z,3.60
2023-01-17T00:35:54.093Z,4.00
2023-01-17T00:38:26.279Z,3.70
2023-01-17T00:40:53.391Z,3.90
2023-01-17T00:43:41.344Z,3.70
2023-01-17T00:46:27.269Z,3.70
2023-01-17T00:49:12.600Z,3.70
2023-01-17T00:51:57.987Z,3.70
2023-01-17T00:54:43.374Z,3.70
2023-01-17T00:57:28.839Z,3.70
2023-01-17T01:00:14.220Z,3.70
2023-01-17T01:02:59.379Z,3.80
2023-01-17T01:05:44.742Z,3.80
2023-01-17T01:08:36.176Z,3.70
2023-01-17T01:11:25.212Z,3.80
2023-01-17T01:14:10.625Z,3.70
2023-01-17T01:16:56.112Z,3.80
2023-01-17T01:19:41.366Z,3.70
2023-01-17T01:22:27.042Z,3.70
2023-01-17T01:25:12.308Z,3.70
2023-01-17T01:27:57.715Z,3.60
2023-01-17T01:30:43.074Z,3.70
2023-01-17T01:33:21.370Z,3.60
2023-01-17T01:35:53.993Z,3.50
2023-01-17T01:38:23.722Z,3.60
2023-01-17T01:40:55.774Z,3.40
2023-01-17T01:43:45.593Z,3.50
2023-01-17T01:46:25.391Z,3.50
2023-01-17T01:49:15.613Z,3.60
2023-01-17T01:51:53.638Z,3.00
2023-01-17T01:54:35.348Z,3.40
2023-01-17T01:57:05.032Z,3.30
2023-01-17T01:59:33.975Z,3.20
2023-01-17T02:02:01.437Z,3.30
2023-01-17T02:04:29.118Z,3.20
2023-01-17T02:07:03.804Z,3.20
2023-01-17T02:09:30.623Z,3.30
2023-01-17T02:11:57.997Z,3.00
2023-01-17T02:14:24.973Z,2.90
2023-01-17T02:17:11.907Z,2.90
2023-01-17T02:20:20.482Z,3.00
2023-01-17T02:23:38.431Z,2.90
2023-01-17T02:26:43.419Z,2.80
2023-01-17T02:29:47.579Z,2.80
2023-01-17T02:32:37.713Z,2.90
2023-01-17T02:35:32.952Z,2.90
2023-01-17T02:38:16.263Z,2.80
2023-01-17T02:40:55.020Z,2.70
2023-01-17T02:43:24.728Z,2.70
2023-01-17T02:45:51.728Z,2.80
2023-01-17T02:48:22.953Z,3.30
2023-01-17T02:51:19.329Z,2.50
2023-01-17T02:54:08.514Z,2.50
2023-01-17T02:56:54.320Z,2.60
2023-01-17T02:59:34.288Z,2.50
2023-01-17T03:02:30.640Z,2.80
2023-01-17T03:05:33.197Z,2.50
2023-01-17T03:08:01.859Z,2.50
2023-01-17T03:10:32.051Z,2.70
2023-01-17T03:13:01.028Z,2.90
2023-01-17T03:15:27.973Z,2.40
2023-01-17T03:17:59.716Z,2.50
2023-01-17T03:20:27.190Z,2.50
2023-01-17T03:22:54.010Z,2.60
2023-01-17T03:25:20.867Z,2.50
2023-01-17T03:27:47.737Z,2.40
2023-01-17T03:30:16.048Z,2.40
2023-01-17T03:32:42.880Z,2.40
2023-01-17T03:35:09.865Z,2.70
2023-01-17T03:37:36.734Z,2.40
2023-01-17T03:40:04.256Z,2.50
2023-01-17T03:42:31.064Z,2.50
2023-01-17T03:44:57.897Z,2.50
2023-01-17T03:47:24.911Z,2.60
2023-01-17T03:49:51.933Z,2.60
2023-01-17T03:52:18.781Z,2.70
2023-01-17T03:54:48.439Z,2.60
2023-01-17T03:57:15.716Z,2.60
2023-01-17T03:59:42.669Z,2.50
2023-01-17T04:02:09.661Z,2.50
2023-01-17T04:04:36.571Z,2.30
2023-01-17T04:07:03.486Z,2.30
2023-01-17T04:09:34.018Z,2.20
2023-01-17T04:12:02.426Z,2.20
2023-01-17T04:14:29.222Z,2.30
2023-01-17T04:16:56.435Z,2.30
2023-01-17T04:19:23.578Z,2.30
2023-01-17T04:21:50.429Z,2.30
2023-01-17T04:24:18.086Z,2.70
2023-01-17T04:26:45.147Z,2.30
2023-01-17T04:29:12.114Z,2.30
2023-01-17T04:31:38.954Z,2.30
2023-01-17T04:34:05.794Z,2.40
2023-01-17T04:36:32.632Z,2.30
2023-01-17T04:38:59.594Z,2.20
2023-01-17T04:41:26.454Z,2.20
2023-01-17T04:43:53.331Z,2.20
2023-01-17T04:46:20.202Z,2.20
2023-01-17T04:48:47.091Z,2.10
2023-01-17T04:51:14.161Z,2.30
2023-01-17T04:53:41.120Z,2.10
2023-01-17T04:56:08.009Z,2.00
2023-01-17T04:58:34.998Z,2.00
2023-01-17T05:01:07.063Z,2.00
2023-01-17T05:03:34.488Z,1.90
2023-01-17T05:06:01.861Z,2.00
2023-01-17T05:08:28.863Z,2.00
2023-01-17T05:10:55.989Z,2.00
2023-01-17T05:13:22.888Z,1.90
2023-01-17T05:15:50.486Z,1.90
2023-01-17T05:18:18.489Z,1.90
2023-01-17T05:20:45.599Z,1.80
2023-01-17T05:23:12.575Z,1.80
2023-01-17T05:25:44.199Z,1.90
2023-01-17T05:28:13.262Z,1.70
2023-01-17T05:30:41.141Z,1.70
2023-01-17T05:33:10.194Z,1.70
2023-01-17T05:35:37.252Z,1.90
2023-01-17T05:38:04.477Z,1.70
2023-01-17T05:40:32.973Z,1.60
2023-01-17T05:43:01.280Z,1.60
2023-01-17T05:45:29.524Z,1.50
2023-01-17T05:47:57.302Z,1.60
2023-01-17T05:50:30.254Z,1.50
2023-01-17T05:53:00.388Z,1.40
2023-01-17T05:55:28.518Z,1.50
2023-01-17T05:57:56.177Z,1.50
2023-01-17T06:00:23.795Z,1.50
2023-01-17T06:02:53.495Z,1.50
2023-01-17T06:05:21.358Z,1.60
2023-01-17T06:07:48.735Z,1.60
2023-01-17T06:10:17.185Z,1.50
2023-01-17T06:12:45.273Z,1.60
2023-01-17T06:15:13.641Z,1.60
2023-01-17T06:17:40.654Z,1.50
2023-01-17T06:20:08.909Z,1.50
2023-01-17T06:22:36.048Z,1.40
2023-01-17T06:25:02.946Z,1.40
2023-01-17T06:27:29.809Z,1.40
2023-01-17T06:29:56.566Z,1.50
2023-01-17T06:32:23.388Z,1.30
2023-01-17T06:34:50.234Z,1.40
2023-01-17T06:37:17.077Z,1.40
2023-01-17T06:39:44.007Z,1.30
2023-01-17T06:42:10.862Z,1.30
2023-01-17T06:44:37.721Z,1.30
2023-01-17T06:47:04.597Z,1.30
2023-01-17T06:49:31.413Z,1.50
2023-01-17T06:51:58.323Z,1.40
2023-01-17T06:54:25.256Z,1.40
2023-01-17T06:56:52.139Z,1.40
2023-01-17T06:59:18.969Z,1.40
2023-01-17T07:01:45.913Z,1.40
2023-01-17T07:04:12.807Z,1.30
2023-01-17T07:06:39.794Z,1.30
2023-01-17T07:09:06.629Z,1.30
2023-01-17T07:11:33.563Z,2.50
2023-01-17T07:14:00.473Z,1.50
2023-01-17T07:16:27.372Z,1.30
2023-01-17T07:18:55.233Z,1.40
2023-01-17T07:21:22.662Z,1.50
2023-01-17T07:23:49.637Z,1.50
2023-01-17T07:26:17.401Z,1.40
2023-01-17T07:28:44.278Z,1.50
2023-01-17T07:31:11.278Z,1.60
2023-01-17T07:33:38.184Z,1.50
2023-01-17T07:36:09.347Z,1.60
2023-01-17T07:38:36.684Z,1.70
2023-01-17T07:41:04.193Z,1.70
2023-01-17T07:43:31.681Z,1.60
2023-01-17T07:46:00.812Z,1.50
2023-01-17T07:48:28.953Z,1.50
2023-01-17T07:50:57.338Z,1.50
2023-01-17T07:53:26.276Z,1.30
2023-01-17T07:55:53.803Z,1.30
2023-01-17T07:58:21.419Z,1.40
2023-01-17T08:00:48.360Z,1.80
2023-01-17T08:03:17.710Z,1.40
2023-01-17T08:05:53.931Z,1.30
2023-01-17T08:08:20.810Z,1.30
2023-01-17T08:10:47.657Z,1.50
2023-01-17T08:13:14.495Z,1.40
2023-01-17T08:15:41.396Z,1.30
2023-01-17T08:18:08.303Z,1.30
2023-01-17T08:20:35.177Z,1.30
2023-01-17T08:23:02.058Z,1.40
2023-01-17T08:25:28.952Z,1.40
2023-01-17T08:27:59.304Z,1.70
2023-01-17T08:30:27.289Z,1.70
2023-01-17T08:32:55.181Z,1.40
2023-01-17T08:35:22.150Z,1.70
2023-01-17T08:37:53.014Z,1.40
2023-01-17T08:40:20.275Z,1.70
2023-01-17T08:42:58.162Z,1.20
2023-01-17T08:45:25.630Z,1.30
2023-01-17T08:47:52.792Z,1.20
2023-01-17T08:50:20.843Z,1.70
2023-01-17T08:52:51.168Z,1.40
2023-01-17T08:55:19.515Z,1.40
2023-01-17T08:57:46.983Z,1.50
2023-01-17T09:00:14.287Z,1.50
2023-01-17T09:04:53.705Z,1.50
2023-01-17T09:07:21.039Z,2.10
2023-01-17T09:09:48.473Z,1.60
2023-01-17T09:12:15.324Z,1.50
2023-01-17T09:14:42.239Z,2.00
2023-01-17T09:17:09.156Z,1.90
2023-01-17T09:19:39.030Z,1.50
2023-01-17T09:22:06.701Z,1.70
2023-01-17T09:24:34.096Z,0.80
2023-01-17T09:27:01.195Z,1.60
2023-01-17T09:29:28.474Z,1.70
2023-01-17T09:31:55.339Z,1.70
2023-01-17T09:34:24.287Z,1.70
2023-01-17T09:36:51.319Z,1.70
2023-01-17T09:39:18.755Z,1.80
2023-01-17T09:42:19.553Z,1.80
2023-01-17T09:44:51.513Z,1.80
2023-01-17T09:47:57.912Z,2.00
2023-01-17T09:50:42.000Z,2.10
2023-01-17T09:53:22.348Z,2.10
2023-01-17T09:55:58.397Z,2.10
2023-01-17T09:58:38.382Z,2.20
2023-01-17T10:01:17.764Z,2.30
2023-01-17T10:04:03.590Z,2.30
2023-01-17T10:07:25.108Z,2.30
2023-01-17T10:10:18.544Z,2.30
2023-01-17T10:13:15.045Z,2.40
2023-01-17T10:15:54.736Z,2.50
2023-01-17T10:18:48.844Z,2.50
2023-01-17T10:21:25.692Z,2.60
2023-01-17T10:24:03.740Z,2.60
2023-01-17T10:26:32.676Z,2.70
2023-01-17T10:29:12.556Z,2.70
2023-01-17T10:31:48.386Z,2.80
2023-01-17T10:34:40.685Z,2.90
2023-01-17T10:37:23.257Z,3.10
2023-01-17T10:39:52.372Z,3.20
2023-01-17T10:42:24.845Z,3.40
2023-01-17T10:45:20.871Z,3.40
2023-01-17T10:47:59.936Z,3.40
2023-01-17T10:50:29.079Z,3.50
2023-01-17T10:53:17.272Z,3.50
2023-01-17T10:55:53.627Z,3.50
2023-01-17T10:58:20.533Z,3.60
2023-01-17T11:00:57.366Z,3.70
2023-01-17T11:03:24.411Z,4.30
2023-01-17T11:06:22.274Z,4.90
2023-01-17T11:08:56.464Z,5.30
2023-01-17T11:11:32.369Z,5.60
2023-01-17T11:14:01.626Z,5.70
2023-01-17T11:16:31.714Z,5.70
2023-01-17T11:19:30.430Z,5.20
2023-01-17T11:22:01.771Z,5.30
2023-01-17T11:24:37.129Z,5.50
2023-01-17T11:27:06.246Z,5.80
2023-01-17T11:29:37.106Z,6.20
2023-01-17T11:32:32.277Z,6.10
2023-01-17T11:35:27.852Z,6.40
2023-01-17T11:38:30.186Z,6.70
2023-01-17T11:41:16.929Z,6.80
2023-01-17T11:43:57.873Z,7.00
2023-01-17T11:46:25.575Z,7.10
2023-01-17T11:48:56.145Z,7.10
2023-01-17T11:51:35.296Z,7.30
2023-01-17T11:54:38.452Z,7.50
2023-01-17T11:57:15.587Z,7.50
2023-01-17T11:59:47.745Z,7.60
2023-01-17T12:02:32.051Z,7.50
2023-01-17T12:05:05.141Z,7.60
2023-01-17T12:08:10.907Z,7.80
2023-01-17T12:11:13.781Z,8.00
2023-01-17T12:14:11.637Z,8.20
2023-01-17T12:17:18.465Z,8.30
2023-01-17T12:20:05.165Z,8.30
2023-01-17T12:23:03.255Z,8.20
2023-01-17T12:26:02.238Z,8.10
2023-01-17T12:28:50.674Z,8.20
2023-01-17T12:31:24.031Z,8.30
2023-01-17T12:34:03.592Z,8.40
2023-01-17T12:36:43.673Z,8.60
2023-01-17T12:39:14.151Z,8.60
2023-01-17T12:41:57.857Z,8.80
2023-01-17T12:44:41.765Z,8.80
2023-01-17T12:47:09.477Z,8.60
2023-01-17T12:49:46.631Z,8.80
2023-01-17T12:52:52.402Z,8.90
2023-01-17T12:55:37.708Z,9.00
2023-01-17T12:58:10.780Z,8.90
2023-01-17T13:00:39.290Z,8.80
2023-01-17T13:03:16.110Z,8.80
2023-01-17T13:05:48.821Z,8.70
2023-01-17T13:08:32.974Z,8.50
2023-01-17T13:11:07.177Z,8.60
2023-01-17T13:13:35.697Z,8.70
2023-01-17T13:16:13.246Z,8.70
2023-01-17T13:18:50.987Z,8.80
2023-01-17T13:21:33.931Z,9.00
2023-01-17T13:24:03.737Z,9.20
2023-01-17T13:26:55.525Z,9.20
2023-01-17T13:29:34.345Z,9.20
2023-01-17T13:32:20.112Z,9.40
2023-01-17T13:34:49.932Z,9.50
2023-01-17T13:37:44.969Z,9.60
2023-01-17T13:40:30.484Z,9.50
2023-01-17T13:42:59.653Z,9.30
2023-01-17T13:45:35.237Z,9.30
2023-01-17T13:48:20.053Z,9.30
2023-01-17T13:51:02.452Z,9.30
2023-01-17T13:53:39.465Z,9.40
2023-01-17T13:56:20.124Z,9.30
2023-01-17T13:58:58.218Z,9.30
2023-01-17T14:01:25.336Z,9.30
2023-01-17T14:03:52.234Z,9.60
2023-01-17T14:06:36.514Z,9.70
2023-01-17T14:09:18.379Z,10.00
2023-01-17T14:12:06.021Z,10.30
2023-01-17T14:14:41.910Z,10.30
2023-01-17T14:17:25.820Z,10.10
2023-01-17T14:19:55.854Z,9.40
2023-01-17T14:22:22.698Z,9.10
2023-01-17T14:25:00.451Z,8.80
2023-01-17T14:27:30.521Z,8.70
2023-01-17T14:29:59.081Z,8.40
2023-01-17T14:32:35.385Z,8.50
2023-01-17T14:35:03.966Z,8.50
2023-01-17T14:37:42.321Z,8.50
2023-01-17T14:40:22.030Z,8.40
2023-01-17T14:43:00.879Z,8.10
2023-01-17T14:45:33.879Z,7.50
2023-01-17T14:48:04.514Z,6.90
2023-01-17T14:50:42.906Z,6.40
2023-01-17T14:53:12.833Z,6.50
2023-01-17T14:55:56.786Z,5.80
2023-01-17T14:58:39.399Z,5.60
2023-01-17T15:01:18.824Z,5.30
2023-01-17T15:03:52.834Z,5.10
2023-01-17T15:06:23.918Z,4.90
2023-01-17T15:08:54.640Z,4.70
2023-01-17T15:11:31.643Z,4.60
2023-01-17T15:14:01.902Z,4.50
2023-01-17T15:16:33.419Z,4.40
2023-01-17T15:19:00.934Z,4.40
2023-01-17T15:21:35.513Z,4.40
2023-01-17T15:24:08.358Z,4.20
2023-01-17T15:26:38.986Z,4.20
2023-01-17T15:29:11.380Z,4.20
2023-01-17T15:31:44.311Z,4.10
2023-01-17T15:34:44.240Z,4.00
2023-01-17T15:37:34.321Z,3.90
2023-01-17T15:40:21.089Z,3.90
2023-01-17T15:42:58.805Z,3.80
2023-01-17T15:45:29.661Z,3.80
2023-01-17T15:47:57.942Z,3.90
2023-01-17T15:50:31.920Z,3.90
2023-01-17T15:53:01.999Z,3.90
2023-01-17T15:55:39.335Z,3.80
2023-01-17T15:58:27.281Z,3.80
2023-01-17T16:00:54.587Z,3.90
2023-01-17T16:03:29.355Z,3.90
2023-01-17T16:06:00.129Z,3.90
2023-01-17T16:08:30.704Z,3.80
2023-01-17T16:11:02.431Z,3.80
2023-01-17T16:13:31.764Z,3.80
2023-01-17T16:16:16.711Z,3.70
2023-01-17T16:18:44.828Z,3.60
2023-01-17T16:21:24.298Z,3.60
2023-01-17T16:23:51.395Z,3.50
2023-01-17T16:26:18.732Z,3.60
2023-01-17T16:28:45.909Z,3.60
2023-01-17T16:31:13.043Z,3.60
2023-01-17T16:33:42.262Z,3.60
2023-01-17T16:36:16.692Z,3.60
2023-01-17T16:38:45.415Z,3.50
2023-01-17T16:41:12.838Z,3.50
2023-01-17T16:43:39.816Z,3.40
2023-01-17T16:46:07.086Z,3.50
2023-01-17T16:48:33.954Z,3.30
2023-01-17T16:51:06.691Z,3.30
2023-01-17T16:53:34.993Z,3.30
2023-01-17T16:56:12.260Z,3.30
2023-01-17T16:58:39.803Z,3.20
2023-01-17T17:01:15.903Z,3.20
2023-01-17T17:03:46.931Z,3.20
2023-01-17T17:06:15.114Z,3.30
2023-01-17T17:08:43.129Z,3.30
2023-01-17T17:11:19.049Z,3.30
2023-01-17T17:13:48.776Z,3.30
2023-01-17T17:16:17.727Z,3.30
2023-01-17T17:18:46.946Z,3.20
2023-01-17T17:21:14.609Z,3.20
2023-01-17T17:23:41.538Z,3.10
2023-01-17T17:26:08.599Z,3.10
2023-01-17T17:28:35.801Z,3.10
2023-01-17T17:31:10.259Z,3.10
2023-01-17T17:33:38.740Z,3.10
2023-01-17T17:36:12.010Z,3.00
2023-01-17T17:38:51.222Z,3.00
2023-01-17T17:41:24.238Z,2.90
2023-01-17T17:43:52.487Z,2.90
2023-01-17T17:46:21.251Z,2.90
2023-01-17T17:48:49.028Z,2.80
2023-01-17T17:51:33.144Z,2.70
2023-01-17T17:54:02.524Z,2.60
2023-01-17T17:56:31.544Z,2.60
2023-01-17T17:58:59.728Z,2.60
2023-01-17T18:01:26.724Z,2.60
2023-01-17T18:03:56.889Z,2.70
2023-01-17T18:06:24.073Z,2.70
2023-01-17T18:08:52.344Z,2.70
2023-01-17T18:11:26.052Z,2.60
2023-01-17T18:13:55.160Z,2.60
2023-01-17T18:16:28.228Z,2.60
2023-01-17T18:18:57.001Z,2.60
2023-01-17T18:21:32.497Z,2.60
2023-01-17T18:24:03.719Z,2.50
2023-01-17T18:26:31.665Z,2.50
2023-01-17T18:28:59.870Z,2.50
2023-01-17T18:31:28.836Z,2.50
2023-01-17T18:34:00.650Z,2.50
2023-01-17T18:36:30.887Z,2.50
2023-01-17T18:38:57.883Z,2.50
2023-01-17T18:41:29.982Z,2.40
2023-01-17T18:43:57.940Z,2.40
2023-01-17T18:46:26.472Z,2.50
2023-01-17T18:48:56.747Z,2.40
2023-01-17T18:51:23.992Z,2.40
2023-01-17T18:53:52.960Z,2.40
2023-01-17T18:56:23.712Z,2.40
2023-01-17T18:58:51.316Z,2.50
2023-01-17T19:01:25.298Z,2.60
2023-01-17T19:03:54.723Z,2.50
2023-01-17T19:06:24.528Z,2.40
2023-01-17T19:08:52.064Z,2.30
2023-01-17T19:11:23.767Z,2.10
2023-01-17T19:13:52.461Z,2.10
2023-01-17T19:16:24.528Z,2.10
2023-01-17T19:18:52.899Z,2.10
2023-01-17T19:21:23.316Z,2.10
2023-01-17T19:23:50.550Z,2.00
2023-01-17T19:26:20.016Z,2.00
2023-01-17T19:28:48.819Z,1.90
2023-01-17T19:31:22.274Z,1.80
2023-01-17T19:33:51.065Z,1.80
2023-01-17T19:36:21.102Z,1.80
2023-01-17T19:39:02.970Z,1.90
2023-01-17T19:41:31.649Z,1.80
2023-01-17T19:44:01.016Z,1.80
2023-01-17T19:46:28.296Z,1.80
2023-01-17T19:48:56.680Z,2.10
2023-01-17T19:51:24.694Z,1.90
2023-01-17T19:53:53.508Z,1.80
2023-01-17T19:56:22.969Z,1.80
2023-01-17T19:58:50.039Z,1.80
2023-01-17T20:01:28.760Z,1.80
2023-01-17T20:03:58.193Z,1.80
2023-01-17T20:06:28.894Z,1.70
2023-01-17T20:08:56.626Z,1.60
2023-01-17T20:11:25.706Z,1.60
2023-01-17T20:13:54.927Z,1.90
2023-01-17T20:16:23.728Z,1.70
2023-01-17T20:18:50.862Z,1.70
2023-01-17T20:21:26.623Z,1.60
2023-01-17T20:23:55.033Z,2.30
2023-01-17T20:26:25.238Z,1.60
2023-01-17T20:28:52.187Z,1.60
2023-01-17T20:31:24.846Z,1.70
2023-01-17T20:33:54.534Z,1.60
2023-01-17T20:36:22.478Z,1.60
2023-01-17T20:38:49.684Z,1.60
2023-01-17T20:41:20.667Z,1.60
2023-01-17T20:43:56.260Z,1.50
2023-01-17T20:46:25.726Z,1.60
2023-01-17T20:48:54.879Z,1.60
2023-01-17T20:51:23.679Z,1.40
2023-01-17T20:53:58.392Z,1.50
2023-01-17T20:56:26.609Z,1.40
2023-01-17T20:58:54.521Z,2.00
2023-01-17T21:01:22.636Z,1.70
2023-01-17T21:03:53.181Z,1.90
2023-01-17T21:06:22.297Z,1.80
2023-01-17T21:08:50.161Z,1.90
2023-01-17T21:11:20.880Z,2.00
2023-01-17T21:13:51.499Z,1.90
2023-01-17T21:16:22.798Z,1.90
2023-01-17T21:18:51.671Z,1.90
2023-01-17T21:21:24.129Z,1.60
2023-01-17T21:23:53.545Z,1.50
2023-01-17T21:26:22.251Z,2.60
2023-01-17T21:28:50.843Z,1.60
2023-01-17T21:31:29.531Z,1.70
2023-01-17T21:34:07.261Z,1.90
2023-01-17T21:36:37.155Z,2.10
2023-01-17T21:39:07.290Z,2.20
2023-01-17T21:41:39.495Z,2.40
2023-01-17T21:44:27.921Z,2.60
2023-01-17T21:46:56.537Z,2.50
2023-01-17T21:49:23.598Z,2.50
2023-01-17T21:51:53.226Z,2.60
2023-01-17T21:54:40.413Z,2.50
2023-01-17T21:57:26.350Z,2.60
2023-01-17T21:59:53.123Z,2.70
2023-01-17T22:02:20.021Z,2.70
2023-01-17T22:04:46.949Z,2.70
2023-01-17T22:07:13.916Z,2.50
2023-01-17T22:09:40.775Z,2.40
2023-01-17T22:12:07.637Z,2.30
2023-01-17T22:14:34.436Z,2.20
2023-01-17T22:17:01.547Z,2.10
2023-01-17T22:19:28.344Z,2.10
2023-01-17T22:21:55.218Z,1.80
2023-01-17T22:24:22.268Z,1.60
2023-01-17T22:26:49.123Z,1.70
2023-01-17T22:29:18.790Z,1.60
2023-01-17T22:31:46.380Z,1.50
2023-01-17T22:34:13.951Z,1.60
2023-01-17T22:36:41.259Z,1.50
2023-01-17T22:39:09.694Z,1.50
2023-01-17T22:41:38.181Z,1.60
2023-01-17T22:44:05.524Z,1.60
2023-01-17T22:46:35.751Z,1.50
2023-01-17T22:49:02.746Z,1.60
2023-01-17T22:51:29.773Z,1.50
2023-01-17T22:53:59.400Z,1.50
2023-01-17T22:56:27.543Z,1.50
2023-01-17T22:58:54.570Z,1.60
2023-01-17T23:01:30.928Z,1.70
2023-01-17T23:04:00.193Z,1.70
2023-01-17T23:06:32.598Z,1.60
2023-01-17T23:09:02.454Z,1.70
2023-01-17T23:11:40.903Z,2.10
2023-01-17T23:14:24.289Z,1.50
2023-01-17T23:17:11.090Z,1.60
2023-01-17T23:19:42.666Z,1.70
2023-01-17T23:22:16.370Z,1.70
2023-01-17T23:24:46.269Z,1.90
2023-01-17T23:27:33.090Z,2.00
2023-01-17T23:30:00.396Z,2.30
2023-01-17T23:32:27.565Z,2.10
2023-01-17T23:34:54.752Z,2.20
2023-01-17T23:37:21.604Z,2.10
2023-01-17T23:39:48.443Z,2.00
2023-01-17T23:42:34.167Z,2.00
2023-01-17T23:45:01.095Z,2.00
2023-01-17T23:47:27.914Z,2.00
2023-01-17T23:49:54.749Z,2.10
2023-01-17T23:52:21.608Z,2.10
2023-01-17T23:54:48.559Z,2.00
2023-01-17T23:57:15.433Z,2.00
2023-01-17T23:59:42.287Z,1.90
